Time;durP1;ratioP1;P1;durP2;ratioP2;P2;SDS_P1;SDS_P2;PMS_P1;PMS_P2;Temp;Humidity;BMP_temperature;BMP_pressure;BME280_temperature;BME280_humidity;BME280_pressure;Samples;Min_cycle;Max_cycle;Signal;HPM_P1;HPM_P2
2021/10/14 00:01:41;;;;;;;34.23;23.87;;;;;;;24.00;100.00;99582.86;1707490;81;20967;-61
2021/10/14 00:04:07;;;;;;;27.03;20.77;;;;;;;24.20;97.81;99573.77;1729723;80;21090;-62
2021/10/14 00:06:34;;;;;;;31.40;20.93;;;;;;;24.53;93.80;99573.03;1742826;80;21609;-69
2021/10/14 00:09:01;;;;;;;29.00;21.10;;;;;;;24.90;88.15;99579.58;1742503;81;20905;-60
2021/10/14 00:11:28;;;;;;;32.23;22.30;;;;;;;24.83;88.15;99575.72;1733327;80;21222;-62
2021/10/14 00:13:54;;;;;;;34.63;22.87;;;;;;;24.98;85.70;99570.89;1742385;80;21694;-61
2021/10/14 00:16:20;;;;;;;35.53;23.40;;;;;;;25.27;80.69;99565.86;1740756;80;20952;-61
2021/10/14 00:18:47;;;;;;;45.53;27.57;;;;;;;24.83;86.82;99571.72;1732725;80;21000;-68
2021/10/14 00:21:13;;;;;;;45.53;29.97;;;;;;;25.02;85.24;99570.31;1741853;81;21031;-61
2021/10/14 00:23:40;;;;;;;51.27;31.97;;;;;;;25.07;82.81;99568.32;1731446;80;22161;-68
2021/10/14 00:26:07;;;;;;;55.67;31.90;;;;;;;25.04;84.04;99574.27;1730634;80;20992;-60
2021/10/14 00:28:34;;;;;;;64.07;35.77;;;;;;;24.84;86.33;99578.08;1735723;80;20948;-60
2021/10/14 00:31:00;;;;;;;70.13;40.03;;;;;;;24.88;85.96;99575.07;1742112;80;21068;-60
2021/10/14 00:33:27;;;;;;;85.73;47.03;;;;;;;24.81;87.98;99575.20;1742998;80;21703;-61
2021/10/14 00:35:53;;;;;;;105.10;53.80;;;;;;;24.32;93.88;99573.34;1742607;81;21162;-60
2021/10/14 00:38:20;;;;;;;90.77;47.50;;;;;;;24.45;93.27;99568.63;1741121;80;21431;-60
2021/10/14 00:40:47;;;;;;;82.80;44.43;;;;;;;23.99;97.06;99570.63;1733140;80;21569;-63
2021/10/14 00:43:14;;;;;;;91.03;49.17;;;;;;;24.39;93.05;99571.66;1730481;80;21034;-60
2021/10/14 00:45:40;;;;;;;83.90;46.23;;;;;;;24.36;93.28;99574.34;1742525;80;20904;-66
2021/10/14 00:48:07;;;;;;;81.57;47.00;;;;;;;23.81;97.46;99571.42;1742822;80;21144;-60
2021/10/14 00:50:34;;;;;;;74.03;42.07;;;;;;;24.02;96.85;99575.93;1731212;80;21051;-61
2021/10/14 00:53:00;;;;;;;75.67;40.40;;;;;;;23.77;100.00;99578.40;1730082;80;20936;-61
2021/10/14 00:55:27;;;;;;;67.97;39.60;;;;;;;23.57;100.00;99579.43;1730913;81;22592;-60
2021/10/14 00:57:54;;;;;;;63.67;36.73;;;;;;;23.69;100.00;99580.38;1742969;80;20949;-68
2021/10/14 01:00:20;;;;;;;65.40;36.63;;;;;;;23.83;100.00;99581.25;1742743;80;21825;-60
2021/10/14 01:02:46;;;;;;;56.90;33.33;;;;;;;23.94;100.00;99580.03;1730259;80;21079;-71
2021/10/14 01:05:13;;;;;;;52.77;30.53;;;;;;;24.13;99.19;99583.20;1742764;81;20857;-61
2021/10/14 01:07:39;;;;;;;47.47;29.53;;;;;;;24.04;100.00;99583.86;1742928;80;21016;-60
2021/10/14 01:10:07;;;;;;;46.07;29.73;;;;;;;24.21;98.72;99586.57;1742485;80;21011;-64
2021/10/14 01:12:35;;;;;;;39.90;27.10;;;;;;;24.38;96.20;99586.81;1743226;80;21140;-61
2021/10/14 01:15:17;;;;;;;38.70;25.33;;;;;;;24.48;94.11;99589.36;1742362;80;21114;-62
2021/10/14 01:17:43;;;;;;;38.87;25.07;;;;;;;24.46;94.13;99586.18;1733539;80;20960;-67
2021/10/14 01:20:11;;;;;;;33.80;24.47;;;;;;;24.63;92.65;99588.31;1743037;81;21325;-61
2021/10/14 01:22:38;;;;;;;36.40;25.40;;;;;;;24.41;95.75;99592.14;1734479;80;21506;-67
2021/10/14 01:25:07;;;;;;;32.77;21.23;;;;;;;24.48;95.67;99596.02;1730407;80;21198;-62
2021/10/14 01:27:34;;;;;;;31.53;22.57;;;;;;;24.37;97.10;99596.45;1743271;80;20971;-68
2021/10/14 01:30:04;;;;;;;26.47;20.20;;;;;;;24.76;91.00;99591.55;1742587;80;20999;-60
2021/10/14 01:32:33;;;;;;;29.77;21.33;;;;;;;24.91;88.69;99587.03;1743030;80;21521;-62
2021/10/14 01:35:00;;;;;;;30.27;21.00;;;;;;;24.73;89.28;99600.12;1742938;80;20995;-61
2021/10/14 01:37:28;;;;;;;29.30;22.17;;;;;;;25.00;86.08;99595.91;1742924;80;21993;-63
2021/10/14 01:39:55;;;;;;;29.10;21.50;;;;;;;25.10;84.80;99597.10;1730138;80;21458;-63
2021/10/14 01:42:22;;;;;;;28.50;21.40;;;;;;;25.21;82.73;99599.04;1742948;80;21482;-63
2021/10/14 01:44:49;;;;;;;26.07;18.97;;;;;;;25.31;81.73;99588.18;1733719;80;21059;-61
2021/10/14 01:47:16;;;;;;;32.03;21.37;;;;;;;25.30;80.84;99583.91;1741977;80;21137;-60
2021/10/14 01:49:42;;;;;;;29.00;21.93;;;;;;;24.78;88.22;99592.59;1736621;80;21165;-62
2021/10/14 01:52:09;;;;;;;29.10;22.03;;;;;;;25.07;85.32;99594.20;1737931;80;21588;-61
2021/10/14 01:54:36;;;;;;;31.23;21.13;;;;;;;24.71;90.33;99598.30;1732672;80;21501;-62
2021/10/14 01:57:03;;;;;;;25.40;18.53;;;;;;;24.92;87.43;99606.72;1743079;80;21114;-61
2021/10/14 01:59:30;;;;;;;28.50;20.87;;;;;;;24.77;89.21;99610.98;1743253;80;20987;-70
2021/10/14 02:01:56;;;;;;;29.63;21.53;;;;;;;24.75;89.61;99610.50;1733058;81;21122;-63
2021/10/14 02:04:23;;;;;;;31.87;20.93;;;;;;;24.77;88.68;99606.98;1735035;80;21454;-62
2021/10/14 02:06:49;;;;;;;29.73;21.83;;;;;;;25.03;85.58;99606.00;1732901;80;21016;-62
2021/10/14 02:09:16;;;;;;;26.50;20.40;;;;;;;24.54;91.91;99598.59;1743240;80;21069;-62
2021/10/14 02:11:42;;;;;;;25.23;19.97;;;;;;;24.76;88.99;99588.09;1732548;80;20944;-61
2021/10/14 02:14:09;;;;;;;21.57;17.17;;;;;;;25.10;83.59;99585.65;1730533;80;22315;-62
2021/10/14 02:16:36;;;;;;;24.80;19.13;;;;;;;24.58;87.57;99590.26;1740903;80;21474;-61
2021/10/14 02:19:02;;;;;;;27.33;20.93;;;;;;;24.63;86.62;99596.31;1742208;80;21561;-61
2021/10/14 02:21:30;;;;;;;24.83;18.63;;;;;;;24.57;85.58;99596.69;1738415;80;21613;-63
2021/10/14 02:23:57;;;;;;;29.63;19.17;;;;;;;24.57;85.03;99607.34;1717427;80;21004;-62
2021/10/14 02:26:23;;;;;;;23.17;17.23;;;;;;;24.64;85.99;99595.77;1742998;80;21161;-63
2021/10/14 02:28:50;;;;;;;26.97;17.93;;;;;;;24.53;87.57;99607.13;1735037;80;20951;-67
2021/10/14 02:31:16;;;;;;;22.70;17.90;;;;;;;24.81;86.14;99609.86;1732889;80;21001;-63
2021/10/14 02:33:42;;;;;;;21.70;17.03;;;;;;;24.57;87.89;99617.45;1735730;80;21545;-62
2021/10/14 02:36:09;;;;;;;22.80;16.33;;;;;;;24.59;89.45;99615.84;1730355;80;20967;-62
2021/10/14 02:38:36;;;;;;;21.03;15.83;;;;;;;24.83;87.22;99611.16;1734539;81;21069;-62
2021/10/14 02:41:03;;;;;;;19.93;15.23;;;;;;;25.08;82.83;99618.45;1736087;80;20936;-65
2021/10/14 02:43:30;;;;;;;22.60;16.57;;;;;;;25.05;82.86;99618.51;1730618;80;21356;-64
2021/10/14 02:45:56;;;;;;;28.63;20.10;;;;;;;24.83;85.39;99621.03;1742779;80;20965;-64
2021/10/14 02:48:23;;;;;;;29.50;22.43;;;;;;;24.81;86.38;99621.86;1728203;80;22270;-63
2021/10/14 02:50:50;;;;;;;26.80;19.27;;;;;;;24.80;86.40;99621.07;1740116;80;21241;-63
2021/10/14 02:53:16;;;;;;;21.23;15.93;;;;;;;24.99;84.13;99620.46;1742227;80;21042;-64
2021/10/14 02:55:43;;;;;;;22.53;17.57;;;;;;;25.08;82.66;99624.59;1742895;80;21046;-63
2021/10/14 02:58:10;;;;;;;20.60;15.83;;;;;;;24.80;85.69;99628.28;1743255;80;21087;-71
2021/10/14 03:00:38;;;;;;;20.80;14.53;;;;;;;24.79;86.57;99630.16;1728766;78;21169;-64
2021/10/14 03:03:05;;;;;;;16.17;12.50;;;;;;;24.83;85.75;99627.16;1729518;80;22198;-64
2021/10/14 03:05:31;;;;;;;15.97;11.50;;;;;;;25.05;82.15;99627.84;1738170;80;20978;-62
2021/10/14 03:07:58;;;;;;;17.80;11.87;;;;;;;25.08;81.66;99627.27;1738692;81;21078;-62
2021/10/14 03:10:24;;;;;;;17.50;12.67;;;;;;;25.49;76.70;99633.17;1730418;81;21065;-66
2021/10/14 03:12:51;;;;;;;13.80;11.57;;;;;;;25.56;76.19;99633.56;1730011;80;21000;-64
2021/10/14 03:15:18;;;;;;;17.87;12.77;;;;;;;25.39;77.54;99632.84;1747244;81;21529;-69
2021/10/14 03:17:45;;;;;;;18.63;11.77;;;;;;;25.28;77.91;99633.33;1746396;80;20979;-62
2021/10/14 03:20:12;;;;;;;15.10;11.03;;;;;;;25.04;82.02;99633.45;1750097;80;20995;-63
2021/10/14 03:22:38;;;;;;;12.27;8.87;;;;;;;25.07;81.42;99626.99;1749912;81;20996;-67
2021/10/14 03:25:07;;;;;;;14.77;10.27;;;;;;;24.99;81.94;99627.13;1750373;80;21141;-64
2021/10/14 03:27:34;;;;;;;14.67;11.53;;;;;;;24.98;81.90;99633.55;1746452;80;21088;-64
2021/10/14 03:30:01;;;;;;;15.50;10.27;;;;;;;25.10;81.28;99633.66;1757050;80;21058;-62
2021/10/14 03:32:28;;;;;;;14.23;9.80;;;;;;;25.14;79.30;99638.64;1751287;80;21880;-65
2021/10/14 03:34:55;;;;;;;15.03;10.37;;;;;;;25.56;75.17;99641.57;1750188;81;21094;-62
2021/10/14 03:37:22;;;;;;;14.03;9.90;;;;;;;25.32;78.31;99641.77;1747123;81;20991;-66
2021/10/14 03:39:49;;;;;;;15.13;10.20;;;;;;;25.46;76.01;99642.58;1743086;81;21141;-62
2021/10/14 03:42:17;;;;;;;14.47;10.27;;;;;;;25.48;76.88;99640.38;1750223;80;20940;-70
2021/10/14 03:44:43;;;;;;;14.43;10.23;;;;;;;25.27;79.73;99639.22;1750248;80;20944;-62
2021/10/14 03:47:10;;;;;;;15.73;11.30;;;;;;;25.30;79.25;99643.14;1738834;80;21015;-63
2021/10/14 03:49:36;;;;;;;13.00;9.50;;;;;;;25.37;79.22;99646.22;1732796;81;20900;-63
2021/10/14 03:52:03;;;;;;;16.17;10.97;;;;;;;25.61;75.74;99648.16;1720684;81;21734;-62
2021/10/14 03:54:30;;;;;;;13.73;10.10;;;;;;;25.83;72.57;99653.34;1736625;81;21578;-63
2021/10/14 03:56:58;;;;;;;15.00;9.97;;;;;;;25.72;72.68;99652.72;1750512;81;21122;-62
2021/10/14 03:59:25;;;;;;;15.47;11.30;;;;;;;25.46;76.15;99653.25;1749330;81;21025;-64
2021/10/14 04:01:51;;;;;;;13.57;9.37;;;;;;;25.35;77.43;99651.08;1729271;81;21336;-62
2021/10/14 04:04:18;;;;;;;16.27;10.00;;;;;;;25.37;78.06;99659.02;1722281;82;21976;-63
2021/10/14 04:06:45;;;;;;;14.30;9.03;;;;;;;25.23;79.66;99656.34;1733713;82;21067;-62
2021/10/14 04:09:11;;;;;;;14.80;8.67;;;;;;;25.44;77.94;99661.30;1733369;82;20985;-63
2021/10/14 04:11:38;;;;;;;11.40;8.00;;;;;;;25.20;79.37;99668.15;1733027;82;20965;-64
2021/10/14 04:14:05;;;;;;;12.70;9.13;;;;;;;25.30;79.09;99665.27;1733660;82;21065;-63
2021/10/14 04:16:32;;;;;;;12.40;9.43;;;;;;;25.11;81.77;99664.56;1722391;82;22028;-62
2021/10/14 04:18:59;;;;;;;12.50;8.90;;;;;;;25.29;80.53;99667.70;1733874;82;21007;-64
2021/10/14 04:21:26;;;;;;;11.63;8.97;;;;;;;25.29;79.64;99674.38;1731838;82;20941;-67
2021/10/14 04:23:56;;;;;;;11.53;8.40;;;;;;;25.43;77.59;99677.84;1714725;82;21486;-60
2021/10/14 04:26:23;;;;;;;10.67;7.33;;;;;;;25.31;79.19;99685.55;1696489;82;21525;-69
2021/10/14 04:28:49;;;;;;;11.20;6.97;;;;;;;25.15;80.59;99688.22;1690191;83;21135;-60
2021/10/14 04:31:16;;;;;;;10.10;7.00;;;;;;;25.04;83.55;99695.60;1688324;83;20961;-68
2021/10/14 04:33:42;;;;;;;10.73;8.07;;;;;;;25.09;83.51;99693.38;1718182;82;21049;-64
2021/10/14 04:36:09;;;;;;;11.47;7.67;;;;;;;25.12;83.05;99698.95;1714915;81;21000;-63
2021/10/14 04:38:37;;;;;;;11.50;7.77;;;;;;;25.16;82.81;99699.16;1724936;82;21414;-63
2021/10/14 04:41:03;;;;;;;10.27;7.63;;;;;;;25.43;79.41;99696.53;1729295;82;21157;-62
2021/10/14 04:43:31;;;;;;;12.07;8.13;;;;;;;25.32;80.18;99697.02;1733087;82;21046;-62
2021/10/14 04:45:57;;;;;;;10.70;7.10;;;;;;;25.25;81.23;99701.39;1733598;82;21450;-63
2021/10/14 04:48:24;;;;;;;11.17;7.33;;;;;;;25.45;80.50;99705.56;1733447;82;21525;-63
2021/10/14 04:50:50;;;;;;;13.13;7.27;;;;;;;25.66;78.59;99703.31;1719453;82;21040;-70
2021/10/14 04:53:17;;;;;;;11.37;7.37;;;;;;;25.77;77.28;99702.58;1733225;82;22396;-67
2021/10/14 04:55:43;;;;;;;11.03;7.60;;;;;;;25.93;76.68;99695.86;1721553;82;21470;-63
2021/10/14 04:58:10;;;;;;;12.67;7.87;;;;;;;26.18;75.17;99699.89;1733836;82;21009;-64
2021/10/14 05:00:37;;;;;;;12.50;7.27;;;;;;;26.37;73.16;99708.55;1723293;82;21012;-69
2021/10/14 05:03:03;;;;;;;9.80;6.70;;;;;;;26.46;71.82;99715.88;1733195;81;20985;-63
2021/10/14 05:05:30;;;;;;;11.37;6.33;;;;;;;26.44;70.67;99722.28;1720793;82;21134;-68
2021/10/14 05:07:57;;;;;;;9.60;6.03;;;;;;;26.48;69.49;99735.05;1733840;82;22423;-65
2021/10/14 05:10:24;;;;;;;9.07;5.60;;;;;;;26.62;67.84;99737.14;1733002;82;21009;-65
2021/10/14 05:12:51;;;;;;;11.17;5.87;;;;;;;26.55;66.87;99742.11;1733205;82;20988;-68
2021/10/14 05:15:17;;;;;;;11.10;5.30;;;;;;;26.36;66.79;99747.03;1733087;82;21130;-70
2021/10/14 05:17:43;;;;;;;11.60;6.03;;;;;;;26.41;67.00;99750.95;1733208;82;21118;-64
2021/10/14 05:20:11;;;;;;;9.97;6.17;;;;;;;26.46;66.67;99754.63;1723565;82;21095;-64
2021/10/14 05:22:38;;;;;;;7.97;5.30;;;;;;;26.55;65.55;99752.81;1727888;81;20995;-69
2021/10/14 05:25:06;;;;;;;9.70;6.03;;;;;;;26.56;65.73;99763.77;1732552;82;20988;-64
2021/10/14 05:27:34;;;;;;;10.50;5.47;;;;;;;26.37;67.08;99766.00;1732529;82;20967;-67
2021/10/14 05:30:01;;;;;;;9.33;5.97;;;;;;;26.49;66.16;99770.85;1733638;82;21183;-63
2021/10/14 05:32:28;;;;;;;9.60;6.10;;;;;;;26.36;66.45;99770.29;1727620;82;21031;-64
2021/10/14 05:34:55;;;;;;;10.77;5.53;;;;;;;26.42;66.24;99778.45;1732800;82;21008;-66
2021/10/14 05:37:22;;;;;;;10.10;5.70;;;;;;;26.31;67.16;99781.88;1733251;82;22123;-69
2021/10/14 05:39:48;;;;;;;8.27;5.07;;;;;;;26.23;67.48;99793.28;1733010;82;20885;-63
2021/10/14 05:42:15;;;;;;;8.87;5.53;;;;;;;26.38;66.58;99797.52;1733114;82;21880;-65
2021/10/14 05:44:42;;;;;;;11.50;5.70;;;;;;;26.56;65.31;99791.28;1733392;82;20928;-64
2021/10/14 05:47:08;;;;;;;8.77;5.73;;;;;;;26.57;64.34;99793.41;1732802;82;21542;-68
2021/10/14 05:49:35;;;;;;;8.80;5.33;;;;;;;26.33;66.54;99789.59;1732491;82;21071;-68
2021/10/14 05:52:03;;;;;;;8.77;5.70;;;;;;;26.29;67.57;99800.11;1726810;82;22275;-65
2021/10/14 05:54:31;;;;;;;10.40;6.03;;;;;;;26.26;68.58;99812.73;1733160;82;21210;-65
2021/10/14 05:56:58;;;;;;;12.33;6.07;;;;;;;26.43;67.55;99819.56;1723823;82;21023;-69
2021/10/14 05:59:26;;;;;;;9.27;5.43;;;;;;;26.35;67.88;99823.50;1679610;82;21015;-66
2021/10/14 06:01:52;;;;;;;10.57;6.03;;;;;;;26.86;63.53;99835.28;1731036;81;21978;-64
2021/10/14 06:04:19;;;;;;;9.03;5.77;;;;;;;26.87;62.11;99828.05;1736443;82;21041;-64
2021/10/14 06:06:45;;;;;;;8.80;5.23;;;;;;;27.02;60.57;99826.91;1729436;80;21297;-63
2021/10/14 06:09:12;;;;;;;10.00;5.23;;;;;;;26.79;61.28;99834.89;1728728;80;21031;-66
2021/10/14 06:11:40;;;;;;;9.13;5.43;;;;;;;26.85;60.60;99839.02;1723082;80;21552;-66
2021/10/14 06:14:06;;;;;;;11.40;5.57;;;;;;;26.91;59.98;99840.50;1717474;82;21515;-65
2021/10/14 06:16:34;;;;;;;10.47;5.90;;;;;;;26.89;60.52;99841.33;1726524;80;22781;-67
2021/10/14 06:19:00;;;;;;;10.47;6.57;;;;;;;27.16;58.92;99840.51;1738258;80;21139;-63
2021/10/14 06:21:27;;;;;;;10.97;5.97;;;;;;;27.10;57.17;99839.00;1748202;80;21015;-66
2021/10/14 06:23:53;;;;;;;8.70;5.97;;;;;;;27.13;56.29;99843.00;1741340;80;21076;-65
2021/10/14 06:26:19;;;;;;;9.77;6.40;;;;;;;27.22;55.60;99849.19;1751590;80;20958;-63
2021/10/14 06:28:46;;;;;;;11.67;7.10;;;;;;;26.63;58.49;99855.02;1740539;80;21007;-64
2021/10/14 06:31:13;;;;;;;7.67;6.43;;;;;;;26.19;61.31;99850.52;1745944;80;21189;-63
2021/10/14 06:33:39;;;;;;;9.93;6.60;;;;;;;26.08;64.19;99860.36;1751497;80;20947;-72
2021/10/14 06:36:06;;;;;;;11.30;6.67;;;;;;;26.27;63.17;99857.59;1744015;80;22414;-64
2021/10/14 06:38:33;;;;;;;9.63;6.37;;;;;;;26.67;60.33;99861.38;1744854;80;20952;-63
2021/10/14 06:40:59;;;;;;;9.93;6.83;;;;;;;26.23;62.77;99868.09;1759895;80;20952;-62
2021/10/14 06:43:26;;;;;;;10.67;7.07;;;;;;;26.55;60.84;99859.73;1749153;80;21507;-66
2021/10/14 06:45:53;;;;;;;10.97;7.70;;;;;;;26.08;64.19;99874.50;1749920;80;21130;-63
2021/10/14 06:48:19;;;;;;;9.53;6.83;;;;;;;25.78;68.17;99870.50;1740052;80;21121;-62
2021/10/14 06:50:46;;;;;;;9.03;6.20;;;;;;;26.05;65.85;99875.63;1743864;80;20972;-70
2021/10/14 06:53:13;;;;;;;10.27;6.70;;;;;;;25.93;68.07;99886.25;1748104;80;21042;-62
2021/10/14 06:55:41;;;;;;;10.30;6.70;;;;;;;25.80;68.84;99885.69;1746520;80;21197;-74
2021/10/14 06:58:07;;;;;;;10.57;7.80;;;;;;;25.94;68.92;99886.49;1756228;80;21586;-65
2021/10/14 07:00:35;;;;;;;9.07;7.07;;;;;;;25.98;69.96;99893.92;1742156;82;20998;-63
2021/10/14 07:03:05;;;;;;;9.13;7.30;;;;;;;25.89;70.05;99890.59;1726829;81;20999;-66
2021/10/14 07:05:34;;;;;;;9.60;7.17;;;;;;;26.33;68.10;99893.28;1729411;82;21024;-71
2021/10/14 07:08:01;;;;;;;10.83;7.30;;;;;;;26.09;70.16;99896.66;1728543;82;22345;-62
2021/10/14 07:10:28;;;;;;;10.50;7.00;;;;;;;25.92;71.82;99908.70;1719137;82;21118;-63
2021/10/14 07:12:56;;;;;;;9.77;6.70;;;;;;;25.92;72.08;99907.38;1724016;82;21027;-61
2021/10/14 07:15:24;;;;;;;7.60;5.60;;;;;;;25.92;70.95;99907.38;1722903;82;20995;-70
2021/10/14 07:17:50;;;;;;;7.60;5.73;;;;;;;25.65;71.71;99912.06;1717514;82;21021;-69
2021/10/14 07:20:17;;;;;;;7.30;5.30;;;;;;;25.45;74.07;99917.16;1715027;82;22597;-61
2021/10/14 07:22:43;;;;;;;7.33;5.93;;;;;;;25.84;70.22;99914.73;1719537;82;21668;-63
2021/10/14 07:25:10;;;;;;;7.37;5.33;;;;;;;25.72;71.08;99921.02;1708431;82;20953;-60
2021/10/14 07:27:37;;;;;;;7.23;5.80;;;;;;;25.90;69.08;99917.55;1702154;82;20980;-70
2021/10/14 07:30:08;;;;;;;8.53;5.97;;;;;;;25.95;68.41;99932.16;1721441;82;21003;-72
2021/10/14 07:32:37;;;;;;;6.73;5.30;;;;;;;25.73;69.93;99934.64;1707553;82;22643;-62
2021/10/14 07:35:05;;;;;;;7.03;4.97;;;;;;;25.89;67.24;99936.54;1723163;82;21021;-60
2021/10/14 07:37:32;;;;;;;5.23;4.33;;;;;;;25.90;65.26;99948.25;1727562;82;20980;-62
2021/10/14 07:39:59;;;;;;;4.97;3.60;;;;;;;25.90;62.46;99959.48;1731651;82;21130;-77
2021/10/14 07:42:26;;;;;;;4.67;3.30;;;;;;;25.98;60.85;99955.35;1730239;82;21075;-60
2021/10/14 07:44:53;;;;;;;4.43;3.07;;;;;;;25.68;61.79;99968.06;1725667;82;21143;-61
2021/10/14 07:47:19;;;;;;;4.47;3.70;;;;;;;25.87;59.49;99986.22;1721848;82;21035;-61
2021/10/14 07:49:45;;;;;;;5.40;4.23;;;;;;;25.84;57.47;99984.16;1717792;82;21534;-62
2021/10/14 07:52:12;;;;;;;4.77;3.63;;;;;;;25.74;57.22;99997.62;1720086;82;21194;-63
2021/10/14 07:54:38;;;;;;;6.60;4.67;;;;;;;25.45;57.49;100002.55;1720297;82;21486;-62
2021/10/14 07:57:05;;;;;;;6.33;5.20;;;;;;;25.44;56.20;100005.52;1720923;82;21144;-63
2021/10/14 07:59:31;;;;;;;6.83;5.23;;;;;;;25.43;55.16;100015.41;1725360;82;21056;-66
2021/10/14 08:01:59;;;;;;;6.20;4.70;;;;;;;25.28;55.20;100019.61;1729445;81;21621;-65
2021/10/14 08:04:25;;;;;;;6.53;4.53;;;;;;;25.06;55.62;100016.65;1742866;80;20900;-67
2021/10/14 08:06:52;;;;;;;6.97;4.87;;;;;;;24.99;56.13;100023.11;1751681;80;21526;-63
2021/10/14 08:09:18;;;;;;;7.80;5.03;;;;;;;24.86;56.77;100017.14;1746975;80;21191;-71
2021/10/14 08:11:45;;;;;;;5.40;3.60;;;;;;;24.85;56.78;100028.07;1724619;80;21086;-63
2021/10/14 08:14:12;;;;;;;5.70;3.50;;;;;;;24.61;57.31;100023.52;1723188;80;21364;-63
2021/10/14 08:16:40;;;;;;;9.50;3.87;;;;;;;24.40;58.74;100037.59;1733057;80;21059;-63
2021/10/14 08:19:07;;;;;;;4.37;2.80;;;;;;;24.62;57.32;100046.97;1734957;80;21114;-64
2021/10/14 08:21:34;;;;;;;3.87;2.10;;;;;;;24.84;55.36;100046.48;1730395;80;21780;-63
2021/10/14 08:24:01;;;;;;;3.40;1.90;;;;;;;24.76;54.45;100054.56;1729473;80;21165;-64
2021/10/14 08:26:29;;;;;;;2.93;1.77;;;;;;;24.46;54.84;100066.30;1731080;80;20944;-67
2021/10/14 08:28:55;;;;;;;2.83;1.50;;;;;;;24.27;55.49;100072.81;1745704;80;20968;-66
2021/10/14 08:31:24;;;;;;;3.20;1.30;;;;;;;24.21;55.34;100080.61;1742114;80;21046;-64
2021/10/14 08:33:51;;;;;;;2.00;1.07;;;;;;;24.30;54.45;100096.24;1737518;80;21155;-63
2021/10/14 08:36:18;;;;;;;2.00;1.30;;;;;;;24.30;54.45;100096.24;1741763;80;20984;-70
2021/10/14 08:38:47;;;;;;;2.50;1.47;;;;;;;24.39;52.98;100109.78;1740435;80;21098;-62
2021/10/14 08:41:19;;;;;;;2.93;1.53;;;;;;;24.63;51.66;100117.33;1692774;83;21017;-71
2021/10/14 08:43:48;;;;;;;2.63;1.50;;;;;;;24.60;51.08;100133.09;1705202;82;22316;-63
2021/10/14 08:46:15;;;;;;;1.83;1.13;;;;;;;24.66;50.38;100130.62;1709625;82;21185;-65
2021/10/14 08:48:42;;;;;;;2.13;1.40;;;;;;;24.35;51.15;100147.34;1714157;83;21550;-63
2021/10/14 08:51:09;;;;;;;2.90;1.50;;;;;;;24.35;51.13;100146.81;1704782;83;21013;-65
2021/10/14 08:53:37;;;;;;;2.80;1.33;;;;;;;24.49;50.30;100157.14;1711676;82;21042;-64
2021/10/14 08:56:04;;;;;;;5.07;1.30;;;;;;;24.41;50.35;100157.73;1704162;83;20911;-64
2021/10/14 08:58:32;;;;;;;3.63;1.77;;;;;;;24.34;50.12;100155.09;1712884;83;21956;-63
2021/10/14 09:01:13;;;;;;;3.73;1.60;;;;;;;24.28;50.09;100167.63;1707520;82;20926;-67
2021/10/14 09:03:44;;;;;;;3.27;1.63;;;;;;;24.11;50.50;100171.21;1734230;80;21086;-64
2021/10/14 09:06:12;;;;;;;3.22;1.90;;;;;;;24.13;50.20;100162.39;1745300;80;21043;-65
2021/10/14 09:08:48;;;;;;;3.30;1.50;;;;;;;23.66;51.14;100170.31;1746733;80;21108;-63
2021/10/14 09:11:24;;;;;;;2.43;1.50;;;;;;;24.04;50.18;100190.94;1743477;80;22006;-65
2021/10/14 09:13:53;;;;;;;3.57;1.70;;;;;;;23.91;49.92;100184.89;1745911;80;21662;-69
2021/10/14 09:16:36;;;;;;;2.17;1.33;;;;;;;23.96;49.46;100205.37;1745457;80;20933;-65
2021/10/14 09:19:21;;;;;;;3.73;2.23;;;;;;;23.67;50.06;100205.98;1743689;80;22098;-64
2021/10/14 09:22:01;;;;;;;2.93;2.17;;;;;;;23.74;50.30;100211.03;1744864;81;21047;-63
2021/10/14 09:24:39;;;;;;;4.97;2.60;;;;;;;23.74;50.30;100211.03;1743533;81;21123;-64
2021/10/14 09:27:08;;;;;;;4.67;3.37;;;;;;;23.83;50.19;100216.08;1731619;80;22116;-63
2021/10/14 09:29:37;;;;;;;6.20;3.77;;;;;;;23.92;49.64;100226.41;1738598;80;21054;-63
2021/10/14 09:32:18;;;;;;;4.80;3.03;;;;;;;23.83;49.63;100225.90;1745341;80;21113;-69
2021/10/14 09:34:43;;;;;;;6.50;4.00;;;;;;;23.63;49.70;100234.72;1746838;80;21084;-66
2021/10/14 09:37:23;;;;;;;5.37;3.83;;;;;;;23.78;49.82;100240.03;1746250;80;21741;-64
2021/10/14 09:40:06;;;;;;;5.60;3.63;;;;;;;23.93;49.23;100239.98;1753034;80;21690;-64
2021/10/14 09:42:56;;;;;;;4.90;3.47;;;;;;;24.00;48.83;100246.35;1753863;80;21062;-63
2021/10/14 09:45:28;;;;;;;5.23;3.50;;;;;;;23.73;49.41;100249.38;1752570;80;21709;-63
2021/10/14 09:48:11;;;;;;;4.63;3.13;;;;;;;23.79;49.47;100259.73;1755823;80;20938;-63
2021/10/14 09:50:45;;;;;;;4.33;3.07;;;;;;;23.82;48.93;100263.70;1734366;81;21735;-63
2021/10/14 09:53:15;;;;;;;5.47;4.03;;;;;;;24.15;47.66;100276.12;1755103;81;20888;-63
2021/10/14 09:55:42;;;;;;;6.73;3.70;;;;;;;24.35;46.98;100282.68;1755259;80;21634;-63
2021/10/14 09:58:09;;;;;;;5.70;3.60;;;;;;;24.46;46.76;100279.47;1734222;81;21622;-70
2021/10/14 10:00:37;;;;;;;7.63;4.83;;;;;;;24.49;46.22;100282.92;1754030;81;21033;-66
2021/10/14 10:03:05;;;;;;;6.40;3.83;;;;;;;24.33;46.37;100284.84;1753873;80;21124;-67
2021/10/14 10:05:34;;;;;;;5.33;3.60;;;;;;;24.01;47.12;100309.18;1726236;81;22138;-65
2021/10/14 10:08:04;;;;;;;4.43;3.07;;;;;;;23.89;47.47;100312.14;1736569;81;21511;-64
2021/10/14 10:10:30;;;;;;;4.17;2.90;;;;;;;24.30;45.67;100312.02;1714501;81;21085;-68
2021/10/14 10:13:00;;;;;;;4.30;2.90;;;;;;;24.21;45.88;100321.66;1744909;81;20998;-67
2021/10/14 10:15:44;;;;;;;3.80;2.77;;;;;;;24.61;44.52;100327.35;1743122;81;21148;-68
2021/10/14 10:18:37;;;;;;;5.10;3.47;;;;;;;24.55;44.38;100347.63;1749578;81;21600;-65
2021/10/14 10:21:06;;;;;;;5.00;3.20;;;;;;;24.30;44.76;100339.98;1744096;80;20889;-66
2021/10/14 10:23:48;;;;;;;4.33;3.08;;;;;;;24.04;44.94;100325.95;1686365;82;20973;-69
2021/10/14 10:26:37;;;;;;;;;;;;;;;24.04;44.59;100342.72;1720023;81;21956;-67
2021/10/14 10:29:17;;;;;;;5.50;3.70;;;;;;;23.97;44.77;100346.20;1687997;83;21878;-67
2021/10/14 10:31:55;;;;;;;6.23;3.37;;;;;;;23.77;45.18;100347.58;1688231;81;21170;-67
2021/10/14 10:34:45;;;;;;;8.27;5.83;;;;;;;23.98;44.69;100350.48;1688516;82;21723;-69
2021/10/14 10:37:38;;;;;;;7.53;3.60;;;;;;;23.75;45.09;100355.02;1716142;80;65004;-77
2021/10/14 10:40:15;;;;;;;7.70;5.67;;;;;;;23.86;44.45;100367.25;1705719;83;21024;-78
2021/10/14 10:42:53;;;;;;;10.58;7.92;;;;;;;24.27;43.89;100371.16;1758090;80;21619;-77
2021/10/14 10:45:23;;;;;;;5.70;4.10;;;;;;;24.43;43.10;100364.73;1713486;83;20992;-74
2021/10/14 10:47:58;;;;;;;4.78;2.98;;;;;;;24.37;42.78;100367.14;1713589;82;21778;-68
2021/10/14 10:50:52;;;;;;;9.53;5.33;;;;;;;24.23;42.77;100379.44;1737642;81;21095;-78
2021/10/14 10:53:41;;;;;;;4.20;2.90;;;;;;;24.00;43.07;100364.84;1753274;80;20980;-69
2021/10/14 10:56:31;;;;;;;7.50;5.03;;;;;;;24.03;42.77;100386.41;1714196;83;22186;-72
2021/10/14 10:58:58;;;;;;;5.97;3.27;;;;;;;24.02;42.72;100392.02;1719397;81;21691;-70
2021/10/14 11:01:24;;;;;;;4.20;3.23;;;;;;;24.04;42.64;100381.88;1749307;81;21678;-76
2021/10/14 11:04:02;;;;;;;6.87;3.07;;;;;;;24.13;42.39;100394.92;1749046;81;21630;-74
2021/10/14 11:06:33;;;;;;;5.80;3.30;;;;;;;24.23;42.22;100394.08;1714477;83;21764;-73
2021/10/14 11:09:06;;;;;;;4.30;3.03;;;;;;;24.08;42.38;100402.11;1751311;81;21732;-68
2021/10/14 11:11:34;;;;;;;7.50;4.40;;;;;;;23.77;42.45;100407.47;1751774;80;21066;-72
2021/10/14 11:14:01;;;;;;;4.87;3.30;;;;;;;23.33;43.76;100409.26;1711670;83;20993;-74
2021/10/14 11:16:29;;;;;;;6.43;3.77;;;;;;;23.09;44.46;100418.26;1752584;81;20998;-73
2021/10/14 11:18:56;;;;;;;6.57;3.30;;;;;;;23.05;44.57;100416.66;1713828;83;21632;-77
2021/10/14 11:21:25;;;;;;;5.13;3.80;;;;;;;23.30;44.25;100409.27;1734625;82;21740;-72
2021/10/14 11:23:57;;;;;;;5.20;3.70;;;;;;;23.39;44.06;100414.06;1735965;82;21078;-76
2021/10/14 11:26:34;;;;;;;7.17;3.93;;;;;;;23.11;44.76;100414.82;1735966;82;22252;-67
2021/10/14 11:29:18;;;;;;;4.30;3.20;;;;;;;22.92;45.23;100425.13;1734071;82;21745;-76
2021/10/14 11:31:58;;;;;;;5.00;3.53;;;;;;;23.22;44.77;100431.58;1729916;82;20952;-74